Time;durP1;ratioP1;P1;durP2;ratioP2;P2;SDS_P1;SDS_P2;PMS_P1;PMS_P2;Temp;Humidity;BMP_temperature;BMP_pressure;BME280_temperature;BME280_humidity;BME280_pressure;Samples;Min_cycle;Max_cycle;Signal;HPM_P1;HPM_P2
2022/10/22 00:00:59;;;;;;;12.43;7.90;;;;;;;6.27;68.09;98148.00;1807560;78;20923;-59
2022/10/22 00:03:25;;;;;;;12.43;8.30;;;;;;;6.28;68.12;98147.77;1810997;78;21478;-59
2022/10/22 00:05:52;;;;;;;16.48;8.60;;;;;;;6.30;68.02;98144.84;1810534;78;21011;-59
2022/10/22 00:08:18;;;;;;;17.87;8.93;;;;;;;6.30;67.92;98137.66;1813860;78;20884;-59
2022/10/22 00:10:45;;;;;;;17.40;8.18;;;;;;;6.31;67.85;98145.12;1811432;78;21233;-59
2022/10/22 00:13:12;;;;;;;14.00;8.80;;;;;;;6.30;67.77;98142.98;1810883;78;20903;-59
2022/10/22 00:15:40;;;;;;;14.00;8.28;;;;;;;6.30;67.73;98132.34;1810117;78;21368;-58
2022/10/22 00:18:07;;;;;;;12.35;8.25;;;;;;;6.30;67.64;98132.34;1811947;78;20950;-59
2022/10/22 00:20:34;;;;;;;17.95;8.58;;;;;;;6.29;67.68;98138.70;1812637;78;21351;-59
2022/10/22 00:23:01;;;;;;;15.83;8.68;;;;;;;6.27;67.74;98133.37;1813950;78;21109;-59
2022/10/22 00:25:28;;;;;;;12.68;8.58;;;;;;;6.24;67.79;98136.05;1815406;78;20975;-59
2022/10/22 00:27:55;;;;;;;13.88;8.28;;;;;;;6.23;67.84;98127.78;1804968;78;20876;-59
2022/10/22 00:30:21;;;;;;;14.65;8.95;;;;;;;6.25;67.94;98127.52;1807275;78;21089;-60
2022/10/22 00:32:48;;;;;;;18.80;8.93;;;;;;;6.24;68.04;98121.42;1815884;78;21023;-59
2022/10/22 00:35:16;;;;;;;13.15;8.68;;;;;;;6.25;68.09;98115.55;1810273;78;21014;-59
2022/10/22 00:37:43;;;;;;;14.15;9.40;;;;;;;6.26;68.18;98115.30;1811042;78;21036;-59
2022/10/22 00:40:11;;;;;;;18.73;9.20;;;;;;;6.25;68.21;98119.02;1817205;78;21113;-59
2022/10/22 00:42:38;;;;;;;17.10;9.83;;;;;;;6.23;68.26;98117.14;1813712;78;21406;-58
2022/10/22 00:45:14;;;;;;;21.10;10.13;;;;;;;6.22;68.37;98115.53;1813501;78;20959;-58
2022/10/22 00:48:08;;;;;;;18.90;9.95;;;;;;;6.21;68.53;98112.62;1815111;78;21235;-60
2022/10/22 00:50:46;;;;;;;19.50;10.53;;;;;;;6.23;68.55;98107.84;1804856;78;20967;-59
2022/10/22 00:53:19;;;;;;;15.53;10.43;;;;;;;6.25;68.51;98099.06;1810401;78;20896;-58
2022/10/22 00:55:48;;;;;;;17.98;10.32;;;;;;;6.28;68.55;98100.41;1814180;78;20944;-59
2022/10/22 00:58:14;;;;;;;14.53;9.90;;;;;;;6.30;68.52;98103.60;1813663;78;20959;-59
2022/10/22 01:00:41;;;;;;;15.48;9.53;;;;;;;6.34;68.44;98091.38;1811887;78;21104;-59
2022/10/22 01:03:07;;;;;;;16.70;8.93;;;;;;;6.36;68.42;98085.29;1813443;78;20947;-59
2022/10/22 01:09:12;;;;;;;12.10;9.03;;;;;;;6.35;68.36;98067.19;1814330;78;20987;-59
2022/10/22 01:12:09;;;;;;;17.70;8.60;;;;;;;6.38;68.38;98064.02;1817978;78;21570;-58
2022/10/22 01:15:18;;;;;;;22.13;9.73;;;;;;;6.36;68.42;98064.78;1813265;78;21461;-58
2022/10/22 01:18:08;;;;;;;14.45;8.80;;;;;;;6.35;68.54;98065.05;1810228;78;21435;-58
2022/10/22 01:21:01;;;;;;;11.97;9.03;;;;;;;6.35;68.71;98057.07;1810804;78;20987;-57
2022/10/22 01:23:53;;;;;;;13.22;9.28;;;;;;;6.30;68.94;98059.19;1806950;78;21430;-59
2022/10/22 01:26:34;;;;;;;15.60;10.08;;;;;;;6.24;69.29;98053.59;1812699;78;20964;-59
2022/10/22 01:29:10;;;;;;;13.78;9.18;;;;;;;6.20;69.69;98049.83;1813382;78;21387;-59
2022/10/22 01:31:43;;;;;;;17.75;9.35;;;;;;;6.17;70.06;98051.70;1810453;78;21055;-59
2022/10/22 01:34:13;;;;;;;14.80;9.75;;;;;;;6.15;70.38;98043.97;1809524;78;21145;-58
2022/10/22 01:36:40;;;;;;;15.68;9.55;;;;;;;6.14;70.68;98040.25;1811527;78;21283;-59
2022/10/22 01:39:06;;;;;;;16.12;9.23;;;;;;;6.15;70.86;98039.98;1811936;78;21027;-59
2022/10/22 01:41:34;;;;;;;14.28;9.65;;;;;;;6.18;70.95;98051.44;1811035;78;20857;-58
2022/10/22 01:44:01;;;;;;;16.95;9.58;;;;;;;6.20;71.03;98037.86;1813686;78;20881;-59
2022/10/22 01:46:28;;;;;;;16.23;8.90;;;;;;;6.22;71.05;98041.61;1809388;78;21489;-59
2022/10/22 01:49:12;;;;;;;17.70;9.43;;;;;;;6.23;71.03;98044.00;1810059;78;20840;-58
2022/10/22 01:52:13;;;;;;;18.05;9.20;;;;;;;6.23;71.04;98037.35;1812076;78;20904;-59
2022/10/22 01:55:11;;;;;;;18.05;10.35;;;;;;;6.19;71.02;98043.70;1811810;78;21223;-59
2022/10/22 01:58:00;;;;;;;12.45;8.93;;;;;;;6.18;71.01;98030.68;1810103;78;21133;-59
2022/10/22 02:00:28;;;;;;;14.87;9.15;;;;;;;6.17;71.12;98042.39;1810673;78;21395;-59
2022/10/22 02:03:11;;;;;;;16.20;8.98;;;;;;;6.17;71.24;98042.39;1810897;78;21007;-58
2022/10/22 02:05:45;;;;;;;18.35;9.88;;;;;;;6.15;71.41;98031.19;1812898;78;20959;-59
2022/10/22 02:08:16;;;;;;;17.73;9.68;;;;;;;6.15;71.56;98030.67;1812735;78;21223;-59
2022/10/22 02:10:44;;;;;;;25.17;9.33;;;;;;;6.15;71.71;98035.18;1812494;78;20873;-58
2022/10/22 02:13:16;;;;;;;14.43;9.10;;;;;;;6.14;71.87;98027.76;1809594;78;20841;-59
2022/10/22 02:15:45;;;;;;;16.65;9.78;;;;;;;6.15;71.94;98025.88;1806593;78;20935;-59
2022/10/22 02:18:11;;;;;;;18.73;9.58;;;;;;;6.16;72.13;98026.16;1783512;78;21018;-58
2022/10/22 02:20:41;;;;;;;15.15;9.13;;;;;;;6.17;72.30;98031.75;1811457;78;21387;-59
2022/10/22 02:23:08;;;;;;;15.68;9.23;;;;;;;6.18;72.39;98026.69;1809931;78;20907;-58
2022/10/22 02:25:39;;;;;;;16.23;9.25;;;;;;;6.21;72.33;98027.51;1807717;78;20888;-58
2022/10/22 02:28:18;;;;;;;15.35;8.85;;;;;;;6.22;72.44;98030.42;1811596;78;20959;-59
2022/10/22 02:30:50;;;;;;;14.55;9.60;;;;;;;6.23;72.55;98028.04;1811928;78;20914;-59
2022/10/22 02:33:27;;;;;;;15.90;9.08;;;;;;;6.23;72.48;98029.89;1811562;78;21670;-60
2022/10/22 02:35:54;;;;;;;17.57;8.78;;;;;;;6.22;72.48;98025.09;1811989;78;21035;-59
2022/10/22 02:38:23;;;;;;;13.68;9.00;;;;;;;6.22;72.55;98026.43;1811548;78;20939;-57
2022/10/22 02:40:50;;;;;;;21.17;9.63;;;;;;;6.23;72.47;98032.03;1811113;78;20884;-60
2022/10/22 02:43:18;;;;;;;17.40;9.23;;;;;;;6.23;72.49;98037.35;1799314;78;20965;-58
2022/10/22 02:45:45;;;;;;;17.00;9.70;;;;;;;6.23;72.56;98033.36;1809284;78;21080;-58
2022/10/22 02:48:13;;;;;;;20.80;10.20;;;;;;;6.22;72.47;98037.06;1809274;78;20939;-59
2022/10/22 02:50:42;;;;;;;18.37;10.48;;;;;;;6.21;72.57;98030.17;1810455;78;20872;-59
2022/10/22 02:53:08;;;;;;;15.35;10.03;;;;;;;6.21;72.63;98030.17;1811815;78;21065;-59
2022/10/22 02:55:35;;;;;;;18.42;10.13;;;;;;;6.22;72.75;98024.32;1811149;78;21086;-59
2022/10/22 02:58:02;;;;;;;16.93;10.00;;;;;;;6.24;72.86;98026.99;1813715;78;21935;-59
2022/10/22 03:00:28;;;;;;;15.88;9.60;;;;;;;6.28;73.02;98025.92;1810633;78;20860;-59
2022/10/22 03:02:55;;;;;;;17.45;10.30;;;;;;;6.31;72.94;98020.90;1812627;78;20936;-58
2022/10/22 03:05:22;;;;;;;21.37;10.13;;;;;;;6.34;72.94;98025.67;1812093;78;20927;-59
2022/10/22 03:07:48;;;;;;;16.07;10.03;;;;;;;6.34;72.80;98033.66;1812208;78;20877;-59
2022/10/22 03:10:15;;;;;;;17.65;9.78;;;;;;;6.32;72.83;98034.45;1812713;78;21070;-59
2022/10/22 03:12:42;;;;;;;16.70;9.58;;;;;;;6.32;72.89;98032.31;1805352;78;21351;-59
2022/10/22 03:15:09;;;;;;;19.23;9.98;;;;;;;6.31;72.95;98028.07;1807520;78;20872;-59
2022/10/22 03:17:36;;;;;;;15.28;10.03;;;;;;;6.32;73.04;98029.66;1807791;78;20916;-59
2022/10/22 03:20:06;;;;;;;13.88;9.90;;;;;;;6.34;73.06;98016.36;1811921;78;21008;-59
2022/10/22 03:22:33;;;;;;;15.70;9.68;;;;;;;6.33;73.26;98012.64;1811160;78;21940;-58
2022/10/22 03:25:02;;;;;;;15.35;10.03;;;;;;;6.30;73.34;98012.63;1792521;78;20951;-58
2022/10/22 03:27:29;;;;;;;14.83;9.23;;;;;;;6.26;73.50;98018.22;1812843;78;20974;-58
2022/10/22 03:29:56;;;;;;;15.35;9.88;;;;;;;6.23;73.83;98019.25;1814107;78;20985;-58
2022/10/22 03:32:23;;;;;;;16.12;9.63;;;;;;;6.18;74.14;98026.16;1812386;78;20873;-59
2022/10/22 03:34:50;;;;;;;17.15;10.03;;;;;;;6.19;74.24;98025.64;1811887;78;21101;-58
2022/10/22 03:37:17;;;;;;;14.78;10.20;;;;;;;6.21;74.27;98022.19;1810129;78;20959;-58
2022/10/22 03:39:44;;;;;;;17.45;9.20;;;;;;;6.26;74.34;98020.88;1792738;78;20916;-58
2022/10/22 03:42:12;;;;;;;13.40;9.35;;;;;;;6.28;74.30;98017.42;1811552;78;20957;-58
2022/10/22 03:44:39;;;;;;;18.57;9.40;;;;;;;6.33;74.17;98025.42;1807277;78;20919;-58
2022/10/22 03:47:06;;;;;;;14.43;9.28;;;;;;;6.35;74.04;98023.81;1813138;78;21113;-58
2022/10/22 03:49:32;;;;;;;17.32;9.20;;;;;;;6.34;73.87;98023.02;1812608;78;20960;-58
2022/10/22 03:52:08;;;;;;;20.77;9.35;;;;;;;6.34;73.91;98026.20;1809306;78;20990;-58
2022/10/22 03:54:35;;;;;;;15.38;9.00;;;;;;;6.32;73.84;98025.14;1805520;78;20939;-58
2022/10/22 03:57:06;;;;;;;18.57;10.10;;;;;;;6.30;73.86;98017.95;1809510;78;20965;-57
2022/10/22 03:59:41;;;;;;;14.60;9.95;;;;;;;6.27;73.95;98013.67;1812978;78;21679;-58
2022/10/22 04:02:09;;;;;;;17.23;10.10;;;;;;;6.27;73.85;98018.47;1813715;78;20928;-58
2022/10/22 04:04:36;;;;;;;16.57;9.33;;;;;;;6.24;73.86;98015.02;1813598;78;20982;-58
2022/10/22 04:07:04;;;;;;;12.47;9.13;;;;;;;6.27;73.96;98007.83;1814980;78;21458;-58
2022/10/22 04:09:32;;;;;;;16.05;9.85;;;;;;;6.28;74.02;98004.13;1813758;78;20849;-58
2022/10/22 04:11:59;;;;;;;17.45;10.30;;;;;;;6.30;74.07;97991.36;1809901;78;21697;-58
2022/10/22 04:14:27;;;;;;;15.40;10.03;;;;;;;6.35;74.07;97983.91;1813626;78;20869;-58
2022/10/22 04:16:55;;;;;;;15.68;9.73;;;;;;;6.38;74.09;97978.88;1813780;78;21384;-59
2022/10/22 04:19:21;;;;;;;17.30;10.30;;;;;;;6.39;73.96;97976.47;1811984;78;20908;-58
2022/10/22 04:21:48;;;;;;;15.30;10.13;;;;;;;6.37;73.99;97973.28;1811787;78;20967;-58
2022/10/22 04:24:15;;;;;;;22.10;14.87;;;;;;;6.33;74.17;97980.20;1806293;78;21210;-58
2022/10/22 04:26:42;;;;;;;24.52;15.32;;;;;;;6.28;74.42;97981.51;1805841;78;20991;-58
2022/10/22 04:29:08;;;;;;;19.85;12.45;;;;;;;6.19;74.66;97979.09;1806726;78;20920;-58
2022/10/22 04:31:36;;;;;;;20.92;11.70;;;;;;;6.12;74.88;97971.90;1811097;78;20967;-59
2022/10/22 04:34:02;;;;;;;18.50;11.18;;;;;;;6.08;75.09;97973.46;1811048;78;21006;-58
2022/10/22 04:36:30;;;;;;;20.02;10.48;;;;;;;6.05;75.28;97968.69;1813163;79;21574;-58
2022/10/22 04:38:59;;;;;;;19.27;11.60;;;;;;;6.05;75.42;97976.66;1809006;78;20974;-59
2022/10/22 04:41:31;;;;;;;17.92;12.40;;;;;;;6.03;75.59;97980.12;1813255;78;20840;-58
2022/10/22 04:43:58;;;;;;;21.37;11.28;;;;;;;5.99;75.82;97977.69;1810072;78;20970;-58
2022/10/22 04:46:29;;;;;;;20.08;10.82;;;;;;;5.99;75.94;97979.83;1811344;78;20853;-59
2022/10/22 04:48:56;;;;;;;18.60;11.25;;;;;;;5.99;76.10;97968.38;1814401;78;21063;-58
2022/10/22 04:51:24;;;;;;;17.42;11.03;;;;;;;5.99;76.24;97973.70;1811247;78;20947;-58
2022/10/22 04:53:53;;;;;;;20.05;11.22;;;;;;;5.99;76.30;97964.39;1808999;78;20876;-59
2022/10/22 04:56:29;;;;;;;18.20;11.73;;;;;;;5.93;76.39;97972.09;1806608;78;20944;-59
2022/10/22 04:59:01;;;;;;;22.80;13.35;;;;;;;5.87;76.58;97970.46;1803692;78;20962;-58
2022/10/22 05:01:32;;;;;;;24.90;13.60;;;;;;;5.84;76.76;97969.64;1806964;78;21441;-58
2022/10/22 05:04:00;;;;;;;21.87;12.33;;;;;;;5.82;76.90;97970.41;1811073;78;20872;-58
2022/10/22 05:06:30;;;;;;;18.70;11.38;;;;;;;5.82;77.00;97975.72;1811863;78;21077;-59
2022/10/22 05:08:59;;;;;;;24.65;11.00;;;;;;;5.84;77.21;97976.29;1812581;78;21430;-59
2022/10/22 05:11:32;;;;;;;18.85;11.22;;;;;;;5.87;77.30;97978.44;1811293;78;21002;-58
2022/10/22 05:14:01;;;;;;;17.48;10.88;;;;;;;5.89;77.32;97978.97;1807052;78;21113;-59
2022/10/22 05:16:28;;;;;;;18.98;10.50;;;;;;;5.91;77.40;97986.19;1808963;78;20912;-59
2022/10/22 05:18:56;;;;;;;18.45;10.15;;;;;;;5.93;77.32;97979.55;1812122;78;21534;-58
2022/10/22 05:21:23;;;;;;;18.98;10.98;;;;;;;5.95;77.23;97982.74;1799427;78;21095;-60
2022/10/22 05:23:53;;;;;;;21.48;11.35;;;;;;;5.95;77.11;97984.59;1814167;77;20977;-58
2022/10/22 05:26:20;;;;;;;22.85;10.58;;;;;;;5.98;77.05;97998.70;1829267;77;21121;-58
2022/10/22 05:28:49;;;;;;;26.37;14.53;;;;;;;5.99;76.96;97997.63;1826146;77;20999;-59
2022/10/22 05:31:16;;;;;;;17.85;12.05;;;;;;;6.01;77.06;97999.50;1829980;77;20903;-59
2022/10/22 05:33:43;;;;;;;17.27;11.65;;;;;;;6.01;77.01;97995.51;1834413;77;21062;-58
2022/10/22 05:36:13;;;;;;;20.72;11.30;;;;;;;6.02;77.12;97991.80;1822219;77;20991;-59
2022/10/22 05:38:40;;;;;;;18.27;11.35;;;;;;;6.05;76.98;97991.29;1825992;77;21084;-58
2022/10/22 05:41:13;;;;;;;22.85;12.78;;;;;;;6.07;76.94;97991.82;1814853;77;20872;-58
2022/10/22 05:43:42;;;;;;;21.42;11.75;;;;;;;6.09;76.98;97991.03;1832470;77;20907;-58
2022/10/22 05:46:12;;;;;;;21.65;11.55;;;;;;;6.13;76.94;98000.07;1810230;77;21631;-58
2022/10/22 05:48:40;;;;;;;20.32;11.43;;;;;;;6.18;76.90;97993.44;1831696;77;20908;-59
2022/10/22 05:51:10;;;;;;;21.00;11.57;;;;;;;6.23;76.85;98004.10;1826369;77;21507;-59
2022/10/22 05:53:40;;;;;;;17.65;11.55;;;;;;;6.27;76.76;98002.52;1828514;77;21120;-59
2022/10/22 05:56:12;;;;;;;17.73;11.00;;;;;;;6.33;76.66;98006.80;1818931;77;21517;-59
2022/10/22 05:58:39;;;;;;;17.85;10.82;;;;;;;6.36;76.62;98006.81;1819788;77;21065;-59
2022/10/22 06:01:12;;;;;;;17.92;11.35;;;;;;;6.38;76.54;98012.14;1825557;77;21010;-59
2022/10/22 06:03:39;;;;;;;17.55;11.33;;;;;;;6.43;76.48;98012.68;1825483;77;21145;-59
2022/10/22 06:06:37;;;;;;;19.02;11.25;;;;;;;6.43;76.28;98012.13;1819323;77;20899;-59
2022/10/22 06:09:29;;;;;;;21.10;13.40;;;;;;;6.42;76.40;98013.20;1837697;77;21399;-59
2022/10/22 06:11:58;;;;;;;18.23;12.20;;;;;;;6.42;76.56;98025.17;1834023;77;21035;-58
2022/10/22 06:14:25;;;;;;;18.25;12.88;;;;;;;6.39;76.67;98019.04;1825508;77;20907;-58
2022/10/22 06:16:52;;;;;;;17.40;11.97;;;;;;;6.38;76.92;98010.81;1821668;77;21187;-58
2022/10/22 06:19:22;;;;;;;19.35;12.33;;;;;;;6.39;77.13;98010.25;1833687;77;20868;-58
2022/10/22 06:21:49;;;;;;;21.15;12.10;;;;;;;6.39;77.23;98013.72;1843422;77;20943;-58
2022/10/22 06:24:16;;;;;;;18.77;11.90;;;;;;;6.41;77.16;98010.26;1832147;77;20992;-57
2022/10/22 06:26:42;;;;;;;19.90;12.18;;;;;;;6.43;77.00;98006.80;1820639;77;20943;-59
2022/10/22 06:37:03;;;;;;;18.15;11.73;;;;;;;6.69;76.54;98004.45;1834431;77;20951;-58
2022/10/22 06:39:30;;;;;;;25.35;11.08;;;;;;;6.77;76.40;97995.15;1823497;77;21437;-58
2022/10/22 06:41:56;;;;;;;18.77;10.98;;;;;;;6.86;76.13;98003.67;1822208;78;22046;-58
2022/10/22 06:44:23;;;;;;;18.15;12.13;;;;;;;7.01;75.96;98010.07;1822762;77;20900;-59
2022/10/22 06:46:51;;;;;;;22.40;12.53;;;;;;;7.10;75.31;98003.95;1809425;78;21663;-58
2022/10/22 06:49:19;;;;;;;25.30;12.53;;;;;;;7.16;74.83;97998.09;1826446;78;20925;-59
2022/10/22 06:51:51;;;;;;;21.65;11.78;;;;;;;7.20;74.67;97993.29;1823137;78;21149;-59
2022/10/22 06:54:17;;;;;;;21.50;11.70;;;;;;;7.26;74.48;97989.54;1820578;77;21655;-59
2022/10/22 06:56:44;;;;;;;22.77;11.78;;;;;;;7.34;74.41;97988.20;1810418;78;20913;-58
2022/10/22 06:59:10;;;;;;;19.17;11.60;;;;;;;7.39;74.43;97985.53;1808398;78;20953;-58
2022/10/22 07:01:37;;;;;;;16.30;10.53;;;;;;;7.43;74.34;97984.72;1805748;78;20990;-59
2022/10/22 07:04:04;;;;;;;21.70;10.95;;;;;;;7.48;74.38;97978.58;1812516;78;21461;-59
2022/10/22 07:06:32;;;;;;;18.85;10.35;;;;;;;7.54;74.28;97982.81;1812164;78;21375;-59
2022/10/22 07:09:00;;;;;;;19.32;9.78;;;;;;;7.60;74.11;97980.42;1812242;78;20884;-60
2022/10/22 07:11:41;;;;;;;17.92;10.80;;;;;;;7.68;74.09;97979.07;1812143;78;20975;-59
2022/10/22 07:14:14;;;;;;;15.38;10.18;;;;;;;7.77;73.96;97974.24;1813112;78;21853;-58
2022/10/22 07:16:45;;;;;;;21.52;11.78;;;;;;;7.88;73.39;97977.12;1812891;78;20896;-60
2022/10/22 07:19:11;;;;;;;15.80;10.40;;;;;;;7.93;72.76;97967.77;1813993;78;21225;-58
2022/10/22 07:21:39;;;;;;;17.32;11.30;;;;;;;8.00;72.57;97967.47;1812945;78;20927;-58
2022/10/22 07:24:07;;;;;;;17.30;10.38;;;;;;;8.06;71.92;97973.03;1808502;78;21398;-58
2022/10/22 07:26:35;;;;;;;18.70;9.90;;;;;;;8.10;71.80;97965.53;1813563;78;20931;-59
2022/10/22 07:29:02;;;;;;;17.32;9.83;;;;;;;8.16;71.50;97978.33;1812037;78;20986;-58
2022/10/22 07:31:29;;;;;;;15.53;10.20;;;;;;;8.18;71.39;97985.52;1809158;78;21813;-59
2022/10/22 07:33:57;;;;;;;15.32;10.55;;;;;;;8.23;71.33;97982.30;1812658;78;20875;-59
2022/10/22 07:36:23;;;;;;;19.07;11.57;;;;;;;8.30;71.32;97985.22;1810099;78;20857;-59
2022/10/22 07:38:56;;;;;;;20.43;11.70;;;;;;;8.37;71.08;97993.72;1809914;78;20931;-59
2022/10/22 07:41:22;;;;;;;24.82;17.77;;;;;;;8.38;71.08;97987.32;1811179;78;20952;-59
2022/10/22 07:43:49;;;;;;;33.65;23.05;;;;;;;8.42;70.94;97993.69;1812661;78;21215;-60
2022/10/22 07:46:17;;;;;;;22.50;17.30;;;;;;;8.45;71.17;97998.48;1811096;78;20998;-59
2022/10/22 07:48:43;;;;;;;22.22;14.80;;;;;;;8.49;71.11;97992.31;1804792;78;20849;-60
2022/10/22 07:51:10;;;;;;;35.80;20.95;;;;;;;8.54;71.16;97991.48;1828256;77;21475;-60
2022/10/22 07:53:38;;;;;;;;;;;;;;;8.60;71.19;97996.52;1838993;77;36933;-60
2022/10/22 07:56:06;;;;;;;23.12;14.23;;;;;;;8.70;70.97;97993.78;1837153;77;20189;-58
2022/10/22 07:58:33;;;;;;;18.00;10.82;;;;;;;8.82;70.81;97996.91;1837552;77;21608;-59
2022/10/22 08:01:00;;;;;;;20.40;10.40;;;;;;;8.95;69.57;97992.78;1825456;77;20983;-58
2022/10/22 08:03:29;;;;;;;15.20;10.58;;;;;;;9.08;68.55;97997.50;1829934;77;20948;-59
2022/10/22 08:05:56;;;;;;;18.90;11.12;;;;;;;9.19;68.00;97989.64;1833631;77;20975;-59
2022/10/22 08:08:23;;;;;;;16.87;9.93;;;;;;;9.33;67.71;98007.16;1833151;77;21223;-59
2022/10/22 08:10:52;;;;;;;17.45;10.95;;;;;;;9.49;67.07;98014.75;1818771;77;20900;-59
2022/10/22 08:13:20;;;;;;;18.15;11.33;;;;;;;9.66;66.53;98014.88;1811525;79;20892;-59
2022/10/22 08:15:47;;;;;;;15.78;10.10;;;;;;;9.82;65.86;98014.97;1812112;78;20973;-59
2022/10/22 08:18:14;;;;;;;18.07;10.68;;;;;;;9.96;65.24;98008.62;1810210;79;20947;-59
2022/10/22 08:20:41;;;;;;;16.23;10.43;;;;;;;10.10;64.94;98006.08;1810355;78;21207;-59
2022/10/22 08:23:08;;;;;;;17.40;11.00;;;;;;;10.24;64.63;98007.00;1812007;79;21426;-60
2022/10/22 08:25:35;;;;;;;14.93;10.35;;;;;;;10.34;64.26;98006.08;1812460;78;20923;-59
2022/10/22 08:28:01;;;;;;;17.75;9.75;;;;;;;10.42;63.64;98004.08;1810904;78;20999;-61
2022/10/22 08:30:28;;;;;;;17.92;10.03;;;;;;;10.49;63.26;98009.34;1811245;79;20982;-59
2022/10/22 08:32:55;;;;;;;18.67;9.80;;;;;;;10.53;63.00;98007.67;1810134;79;21228;-58
2022/10/22 08:35:23;;;;;;;18.02;9.88;;;;;;;10.57;62.71;97997.99;1813793;78;20959;-59
2022/10/22 08:37:50;;;;;;;15.58;9.38;;;;;;;10.64;62.15;98005.13;1812789;79;20943;-59
2022/10/22 08:40:31;;;;;;;18.45;9.20;;;;;;;10.71;62.11;98007.43;1811061;78;20985;-59
2022/10/22 08:43:52;;;;;;;12.70;8.85;;;;;;;10.79;61.83;98008.90;1810851;78;21433;-58
2022/10/22 08:46:40;;;;;;;13.88;9.55;;;;;;;10.88;61.56;98011.17;1811406;78;21212;-59
2022/10/22 08:49:12;;;;;;;15.75;9.28;;;;;;;11.02;61.48;98017.14;1810288;79;21015;-59
2022/10/22 08:51:39;;;;;;;16.75;9.13;;;;;;;11.16;61.05;98019.33;1806362;79;20899;-58
2022/10/22 08:54:44;;;;;;;16.70;10.40;;;;;;;11.24;60.76;98021.33;1808200;79;21449;-58
2022/10/22 08:57:22;;;;;;;15.28;9.68;;;;;;;11.30;60.70;98031.70;1812636;78;21436;-57
2022/10/22 08:59:57;;;;;;;11.70;9.20;;;;;;;11.34;60.12;98027.33;1755356;80;21249;-58
2022/10/22 09:03:07;;;;;;;15.03;9.08;;;;;;;11.39;60.06;98027.79;1748596;80;20979;-59
2022/10/22 09:05:59;;;;;;;18.48;10.08;;;;;;;11.46;59.82;98032.23;1711758;80;21158;-60
2022/10/22 09:08:27;;;;;;;15.85;9.30;;;;;;;11.50;59.31;98032.69;1771155;80;20908;-59
2022/10/22 09:11:08;;;;;;;33.08;18.23;;;;;;;11.51;59.14;98033.48;1776138;80;21545;-59
2022/10/22 09:13:37;;;;;;;29.27;16.62;;;;;;;11.53;59.03;98038.00;1759525;80;21245;-59
2022/10/22 09:16:49;;;;;;;20.90;12.25;;;;;;;11.61;59.25;98027.95;1812905;78;20891;-59
2022/10/22 09:19:49;;;;;;;23.75;11.40;;;;;;;11.82;59.40;98033.23;1812616;78;20899;-59
2022/10/22 09:23:03;;;;;;;19.42;11.12;;;;;;;12.02;58.72;98024.78;1811360;78;20992;-59
2022/10/22 09:25:32;;;;;;;17.05;10.68;;;;;;;12.13;58.38;98022.13;1809613;79;20903;-59
2022/10/22 09:28:01;;;;;;;19.70;12.20;;;;;;;12.28;57.65;98009.75;1813709;78;20963;-59
2022/10/22 09:30:32;;;;;;;24.57;11.60;;;;;;;12.47;57.29;97998.88;1810180;79;20919;-59
2022/10/22 09:33:12;;;;;;;15.90;11.30;;;;;;;12.69;57.04;97995.44;1811496;79;20955;-59
2022/10/22 09:35:57;;;;;;;21.12;10.78;;;;;;;12.92;56.67;97994.36;1810646;78;20916;-58
2022/10/22 09:38:28;;;;;;;13.90;8.68;;;;;;;13.17;56.15;97989.73;1810839;78;20895;-59
2022/10/22 09:40:56;;;;;;;15.15;10.00;;;;;;;13.43;55.49;97990.69;1810012;78;21686;-59
2022/10/22 09:43:23;;;;;;;18.75;9.55;;;;;;;13.62;54.45;97983.73;1812074;78;20880;-59
2022/10/22 09:45:56;;;;;;;18.10;8.40;;;;;;;13.79;53.96;97977.64;1810968;79;20884;-58
2022/10/22 09:48:41;;;;;;;13.32;8.38;;;;;;;13.97;53.51;97969.86;1810287;79;20923;-59
2022/10/22 09:51:20;;;;;;;13.68;8.13;;;;;;;14.14;53.06;97974.75;1810519;78;20962;-58
2022/10/22 09:54:00;;;;;;;14.70;8.93;;;;;;;14.28;52.73;97962.49;1811191;78;21489;-59
2022/10/22 09:56:37;;;;;;;17.05;9.35;;;;;;;14.38;53.14;97949.56;1810897;79;20899;-59
2022/10/22 09:59:04;;;;;;;14.15;8.23;;;;;;;14.39;52.53;97938.20;1742154;81;20928;-59
2022/10/22 10:01:37;;;;;;;19.02;10.03;;;;;;;14.37;52.11;97936.38;1744565;81;21366;-59
2022/10/22 10:04:09;;;;;;;17.77;9.80;;;;;;;14.36;52.00;97918.65;1739182;80;21424;-59
2022/10/22 10:06:38;;;;;;;15.98;8.58;;;;;;;14.43;52.10;97921.66;1742943;81;21211;-59
2022/10/22 10:09:24;;;;;;;15.03;8.60;;;;;;;14.46;51.83;97917.55;1743943;81;20952;-59
2022/10/22 10:12:09;;;;;;;15.25;9.23;;;;;;;14.36;51.81;97926.73;1757840;81;21479;-59
2022/10/22 10:15:00;;;;;;;17.07;10.38;;;;;;;14.17;52.16;97938.32;1810899;78;20928;-59
2022/10/22 10:17:51;;;;;;;19.02;10.95;;;;;;;14.02;52.53;97953.56;1811247;78;20914;-59
2022/10/22 10:20:37;;;;;;;24.20;11.73;;;;;;;13.86;52.55;97956.45;1803640;78;21128;-59
2022/10/22 10:23:46;;;;;;;17.37;11.60;;;;;;;13.75;52.85;97959.98;1714863;79;20900;-59
2022/10/22 10:26:47;;;;;;;20.02;11.10;;;;;;;13.70;53.15;97962.27;1811259;78;20956;-59
2022/10/22 10:29:23;;;;;;;15.58;10.93;;;;;;;13.65;53.47;97965.64;1811901;78;20919;-58
2022/10/22 10:32:07;;;;;;;14.10;9.53;;;;;;;13.60;53.46;97965.22;1808733;79;20927;-59
2022/10/22 10:35:27;;;;;;;19.20;9.83;;;;;;;13.58;53.60;97978.74;1766947;79;21217;-59
2022/10/22 10:38:12;;;;;;;15.68;9.55;;;;;;;13.58;53.62;97983.58;1810921;78;20932;-59
2022/10/22 10:40:52;;;;;;;16.32;10.53;;;;;;;13.66;53.47;97981.47;1810644;78;20883;-58
2022/10/22 10:43:55;;;;;;;29.87;19.23;;;;;;;13.73;53.40;97986.39;1812594;77;20868;-59
2022/10/22 10:46:48;;;;;;;40.50;23.05;;;;;;;13.79;53.53;97991.10;1813352;78;20835;-58
2022/10/22 10:49:32;;;;;;;19.00;12.93;;;;;;;13.98;53.41;98001.08;1811036;78;20963;-59
2022/10/22 10:52:31;;;;;;;19.52;11.53;;;;;;;14.11;52.88;98013.63;1811169;78;20907;-59
2022/10/22 10:55:34;;;;;;;14.87;9.73;;;;;;;14.14;53.13;98029.97;1811487;78;21545;-59
2022/10/22 10:58:16;;;;;;;20.02;11.22;;;;;;;14.14;52.56;98034.55;1812745;78;20948;-59
2022/10/22 11:01:00;;;;;;;19.20;10.32;;;;;;;14.23;52.20;98015.97;1810853;78;20970;-60
2022/10/22 11:03:33;;;;;;;20.57;11.18;;;;;;;14.41;51.61;97999.34;1810136;79;21717;-59
2022/10/22 11:06:05;;;;;;;15.95;10.70;;;;;;;14.62;51.73;97979.30;1809507;78;20832;-59
2022/10/22 11:08:56;;;;;;;18.80;10.25;;;;;;;14.87;51.64;97967.72;1809076;78;20847;-58
2022/10/22 11:11:31;;;;;;;20.40;9.93;;;;;;;15.00;50.53;97967.54;1811895;79;20918;-59
2022/10/22 11:14:12;;;;;;;16.65;9.95;;;;;;;15.07;50.36;97963.80;1809191;79;20911;-59
2022/10/22 11:16:50;;;;;;;17.62;10.10;;;;;;;15.19;50.21;97963.73;1809869;79;21939;-60
2022/10/22 11:19:49;;;;;;;21.02;11.60;;;;;;;15.33;49.05;97949.49;1810870;79;21540;-59
2022/10/22 11:22:32;;;;;;;18.50;11.03;;;;;;;15.43;48.82;97943.73;1811743;78;20964;-59
2022/10/22 11:25:20;;;;;;;13.35;9.60;;;;;;;15.57;48.54;97936.25;1781983;79;21042;-60
2022/10/22 11:28:04;;;;;;;18.90;10.98;;;;;;;15.74;48.27;97936.19;1810229;79;21488;-60
2022/10/22 11:30:36;;;;;;;18.07;9.13;;;;;;;15.82;47.86;97925.11;1811673;79;21217;-59
2022/10/22 11:33:08;;;;;;;23.85;13.13;;;;;;;15.92;48.12;97918.00;1809873;79;20907;-60
2022/10/22 11:35:42;;;;;;;28.30;17.55;;;;;;;16.03;47.60;97907.84;1811168;78;20844;-60
2022/10/22 11:38:16;;;;;;;28.25;13.78;;;;;;;16.16;47.83;97893.28;1811423;78;21528;-59
2022/10/22 11:40:57;;;;;;;18.57;11.63;;;;;;;16.31;47.71;97890.01;1811533;79;20843;-60
2022/10/22 11:43:34;;;;;;;23.45;13.53;;;;;;;16.49;47.16;97881.19;1811383;78;21097;-59
2022/10/22 11:46:09;;;;;;;20.95;12.55;;;;;;;16.68;46.77;97872.63;1808623;79;20883;-59
2022/10/22 11:48:41;;;;;;;19.32;11.88;;;;;;;16.82;46.02;97868.52;1810830;79;20927;-59
2022/10/22 11:51:35;;;;;;;19.73;10.82;;;;;;;16.94;46.13;97867.76;1808788;79;20939;-59
2022/10/22 11:54:27;;;;;;;18.00;10.15;;;;;;;17.09;46.15;97868.48;1810329;79;20994;-60
2022/10/22 11:57:19;;;;;;;16.95;9.80;;;;;;;17.20;45.76;97864.22;1808553;79;21235;-60
2022/10/22 11:59:51;;;;;;;18.73;9.10;;;;;;;17.28;45.12;97861.98;1811148;78;20903;-61
2022/10/22 12:02:41;;;;;;;15.68;9.78;;;;;;;17.35;44.86;97862.77;1811182;79;21074;-61
2022/10/22 12:14:32;;;;;;;15.35;8.93;;;;;;;16.78;44.91;97843.82;1813018;78;20891;-59
2022/10/22 12:17:10;;;;;;;25.55;14.83;;;;;;;16.71;45.05;97848.98;1811612;79;20943;-58